sensor_id;sensor_type;location;lat;lon;timestamp;P1;durP1;ratioP1;P2;durP2;ratioP2
57113;SDS011;42994;51.606;9.988;2022-12-18T00:00:39;30.75;;;14.23;;
57113;SDS011;42994;51.606;9.988;2022-12-18T00:03:06;34.42;;;14.80;;
57113;SDS011;42994;51.606;9.988;2022-12-18T00:05:33;35.22;;;13.95;;
57113;SDS011;42994;51.606;9.988;2022-12-18T00:08:00;29.63;;;13.25;;
57113;SDS011;42994;51.606;9.988;2022-12-18T00:10:26;22.92;;;12.70;;
57113;SDS011;42994;51.606;9.988;2022-12-18T00:12:53;30.42;;;12.68;;
57113;SDS011;42994;51.606;9.988;2022-12-18T00:15:21;21.95;;;12.20;;
57113;SDS011;42994;51.606;9.988;2022-12-18T00:17:48;25.92;;;11.07;;
57113;SDS011;42994;51.606;9.988;2022-12-18T00:20:15;22.90;;;10.93;;
57113;SDS011;42994;51.606;9.988;2022-12-18T00:22:49;18.65;;;9.70;;
57113;SDS011;42994;51.606;9.988;2022-12-18T00:25:16;21.92;;;10.57;;
57113;SDS011;42994;51.606;9.988;2022-12-18T00:27:43;19.92;;;9.25;;
57113;SDS011;42994;51.606;9.988;2022-12-18T00:30:10;20.10;;;9.10;;
57113;SDS011;42994;51.606;9.988;2022-12-18T00:32:38;25.40;;;11.60;;
57113;SDS011;42994;51.606;9.988;2022-12-18T00:35:06;22.10;;;10.65;;
57113;SDS011;42994;51.606;9.988;2022-12-18T00:37:33;22.20;;;11.82;;
57113;SDS011;42994;51.606;9.988;2022-12-18T00:39:59;24.05;;;11.05;;
57113;SDS011;42994;51.606;9.988;2022-12-18T00:42:27;19.13;;;9.30;;
57113;SDS011;42994;51.606;9.988;2022-12-18T00:45:11;17.17;;;9.05;;
57113;SDS011;42994;51.606;9.988;2022-12-18T00:47:39;14.98;;;8.73;;
57113;SDS011;42994;51.606;9.988;2022-12-18T00:50:07;25.65;;;10.07;;
57113;SDS011;42994;51.606;9.988;2022-12-18T00:52:35;18.80;;;8.70;;
57113;SDS011;42994;51.606;9.988;2022-12-18T00:55:01;15.23;;;7.40;;
57113;SDS011;42994;51.606;9.988;2022-12-18T00:57:28;18.08;;;9.10;;
57113;SDS011;42994;51.606;9.988;2022-12-18T00:59:55;15.48;;;8.68;;
57113;SDS011;42994;51.606;9.988;2022-12-18T01:02:21;13.70;;;7.10;;
57113;SDS011;42994;51.606;9.988;2022-12-18T01:04:49;17.15;;;8.07;;
57113;SDS011;42994;51.606;9.988;2022-12-18T01:07:18;25.77;;;11.45;;
57113;SDS011;42994;51.606;9.988;2022-12-18T01:09:45;32.72;;;14.45;;
57113;SDS011;42994;51.606;9.988;2022-12-18T01:12:11;27.60;;;15.02;;
57113;SDS011;42994;51.606;9.988;2022-12-18T01:14:38;32.88;;;15.38;;
57113;SDS011;42994;51.606;9.988;2022-12-18T01:17:05;37.50;;;15.85;;
57113;SDS011;42994;51.606;9.988;2022-12-18T01:19:32;30.05;;;13.32;;
57113;SDS011;42994;51.606;9.988;2022-12-18T01:22:00;26.13;;;13.63;;
57113;SDS011;42994;51.606;9.988;2022-12-18T01:24:27;25.30;;;11.85;;
57113;SDS011;42994;51.606;9.988;2022-12-18T01:26:53;28.25;;;12.35;;
57113;SDS011;42994;51.606;9.988;2022-12-18T01:29:22;25.88;;;11.73;;
57113;SDS011;42994;51.606;9.988;2022-12-18T01:31:48;20.38;;;10.13;;
57113;SDS011;42994;51.606;9.988;2022-12-18T01:34:15;21.75;;;9.93;;
57113;SDS011;42994;51.606;9.988;2022-12-18T01:36:42;16.13;;;8.35;;
57113;SDS011;42994;51.606;9.988;2022-12-18T01:39:12;20.20;;;9.00;;
57113;SDS011;42994;51.606;9.988;2022-12-18T01:41:41;13.70;;;7.18;;
57113;SDS011;42994;51.606;9.988;2022-12-18T01:47:24;16.75;;;7.78;;
57113;SDS011;42994;51.606;9.988;2022-12-18T01:49:54;11.25;;;6.82;;
57113;SDS011;42994;51.606;9.988;2022-12-18T01:52:22;13.02;;;6.28;;
57113;SDS011;42994;51.606;9.988;2022-12-18T01:54:52;15.82;;;7.20;;
57113;SDS011;42994;51.606;9.988;2022-12-18T01:57:19;13.93;;;6.88;;
57113;SDS011;42994;51.606;9.988;2022-12-18T01:59:47;9.73;;;5.78;;
57113;SDS011;42994;51.606;9.988;2022-12-18T02:02:18;14.05;;;6.10;;
57113;SDS011;42994;51.606;9.988;2022-12-18T02:04:46;10.82;;;6.05;;
57113;SDS011;42994;51.606;9.988;2022-12-18T02:07:14;11.82;;;6.70;;
57113;SDS011;42994;51.606;9.988;2022-12-18T02:09:53;13.15;;;6.15;;
57113;SDS011;42994;51.606;9.988;2022-12-18T02:12:27;11.95;;;6.47;;
57113;SDS011;42994;51.606;9.988;2022-12-18T02:15:02;11.93;;;5.80;;
57113;SDS011;42994;51.606;9.988;2022-12-18T02:17:38;16.27;;;7.43;;
57113;SDS011;42994;51.606;9.988;2022-12-18T02:20:12;16.73;;;7.28;;
57113;SDS011;42994;51.606;9.988;2022-12-18T02:22:44;14.65;;;7.43;;
57113;SDS011;42994;51.606;9.988;2022-12-18T02:25:26;19.45;;;8.50;;
57113;SDS011;42994;51.606;9.988;2022-12-18T02:28:10;14.20;;;7.22;;
57113;SDS011;42994;51.606;9.988;2022-12-18T02:30:41;18.73;;;8.93;;
57113;SDS011;42994;51.606;9.988;2022-12-18T02:33:10;15.60;;;8.40;;
57113;SDS011;42994;51.606;9.988;2022-12-18T02:35:38;17.15;;;8.93;;
57113;SDS011;42994;51.606;9.988;2022-12-18T02:38:07;19.25;;;9.68;;
57113;SDS011;42994;51.606;9.988;2022-12-18T02:40:36;15.82;;;8.02;;
57113;SDS011;42994;51.606;9.988;2022-12-18T02:43:08;13.85;;;6.25;;
57113;SDS011;42994;51.606;9.988;2022-12-18T02:45:45;14.27;;;7.25;;
57113;SDS011;42994;51.606;9.988;2022-12-18T02:48:14;16.17;;;7.32;;
57113;SDS011;42994;51.606;9.988;2022-12-18T02:50:44;12.27;;;7.57;;
57113;SDS011;42994;51.606;9.988;2022-12-18T02:53:22;18.98;;;7.18;;
57113;SDS011;42994;51.606;9.988;2022-12-18T02:55:56;22.67;;;8.00;;
57113;SDS011;42994;51.606;9.988;2022-12-18T02:58:32;13.52;;;6.63;;
57113;SDS011;42994;51.606;9.988;2022-12-18T03:01:15;18.70;;;8.20;;
57113;SDS011;42994;51.606;9.988;2022-12-18T03:03:47;13.82;;;7.07;;
57113;SDS011;42994;51.606;9.988;2022-12-18T03:08:49;11.13;;;6.00;;
57113;SDS011;42994;51.606;9.988;2022-12-18T03:11:22;13.20;;;5.72;;
57113;SDS011;42994;51.606;9.988;2022-12-18T03:14:07;11.18;;;5.70;;
57113;SDS011;42994;51.606;9.988;2022-12-18T03:16:37;15.15;;;6.35;;
57113;SDS011;42994;51.606;9.988;2022-12-18T03:19:06;12.20;;;7.20;;
57113;SDS011;42994;51.606;9.988;2022-12-18T03:21:40;15.15;;;6.38;;
57113;SDS011;42994;51.606;9.988;2022-12-18T03:24:14;11.57;;;6.25;;
57113;SDS011;42994;51.606;9.988;2022-12-18T03:26:46;9.77;;;5.72;;
57113;SDS011;42994;51.606;9.988;2022-12-18T03:31:47;13.40;;;6.00;;
57113;SDS011;42994;51.606;9.988;2022-12-18T03:34:19;13.13;;;6.10;;
57113;SDS011;42994;51.606;9.988;2022-12-18T03:36:50;15.75;;;6.50;;
57113;SDS011;42994;51.606;9.988;2022-12-18T03:39:19;14.32;;;5.80;;
57113;SDS011;42994;51.606;9.988;2022-12-18T03:41:55;10.18;;;5.80;;
57113;SDS011;42994;51.606;9.988;2022-12-18T03:44:35;14.40;;;5.68;;
57113;SDS011;42994;51.606;9.988;2022-12-18T03:47:07;11.73;;;5.47;;
57113;SDS011;42994;51.606;9.988;2022-12-18T03:49:38;11.98;;;6.00;;
57113;SDS011;42994;51.606;9.988;2022-12-18T03:52:16;18.65;;;6.55;;
57113;SDS011;42994;51.606;9.988;2022-12-18T03:54:48;12.82;;;6.60;;
57113;SDS011;42994;51.606;9.988;2022-12-18T03:57:16;16.15;;;7.72;;
57113;SDS011;42994;51.606;9.988;2022-12-18T03:59:49;19.90;;;7.18;;
57113;SDS011;42994;51.606;9.988;2022-12-18T04:02:23;11.75;;;5.75;;
57113;SDS011;42994;51.606;9.988;2022-12-18T04:04:51;13.18;;;6.95;;
57113;SDS011;42994;51.606;9.988;2022-12-18T04:07:20;17.15;;;7.00;;
57113;SDS011;42994;51.606;9.988;2022-12-18T04:09:48;12.38;;;6.90;;
57113;SDS011;42994;51.606;9.988;2022-12-18T04:12:17;10.90;;;6.28;;
57113;SDS011;42994;51.606;9.988;2022-12-18T04:14:46;12.80;;;6.22;;
57113;SDS011;42994;51.606;9.988;2022-12-18T04:17:15;10.93;;;4.70;;
57113;SDS011;42994;51.606;9.988;2022-12-18T04:19:41;14.60;;;5.13;;
57113;SDS011;42994;51.606;9.988;2022-12-18T04:22:09;19.67;;;5.97;;
57113;SDS011;42994;51.606;9.988;2022-12-18T04:24:42;10.77;;;4.85;;
57113;SDS011;42994;51.606;9.988;2022-12-18T04:27:16;5.47;;;4.13;;
57113;SDS011;42994;51.606;9.988;2022-12-18T04:29:47;8.77;;;4.45;;
57113;SDS011;42994;51.606;9.988;2022-12-18T04:32:17;11.88;;;4.50;;
57113;SDS011;42994;51.606;9.988;2022-12-18T04:34:45;6.28;;;3.58;;
57113;SDS011;42994;51.606;9.988;2022-12-18T04:37:12;11.05;;;4.25;;
57113;SDS011;42994;51.606;9.988;2022-12-18T04:39:38;7.55;;;4.05;;
57113;SDS011;42994;51.606;9.988;2022-12-18T04:42:12;7.22;;;3.80;;
57113;SDS011;42994;51.606;9.988;2022-12-18T04:44:38;10.57;;;4.05;;
57113;SDS011;42994;51.606;9.988;2022-12-18T04:47:05;9.27;;;4.20;;
57113;SDS011;42994;51.606;9.988;2022-12-18T04:49:33;7.90;;;4.22;;
57113;SDS011;42994;51.606;9.988;2022-12-18T04:52:00;11.77;;;4.18;;
57113;SDS011;42994;51.606;9.988;2022-12-18T04:54:27;7.22;;;4.20;;
57113;SDS011;42994;51.606;9.988;2022-12-18T04:56:54;7.30;;;4.03;;
57113;SDS011;42994;51.606;9.988;2022-12-18T04:59:21;8.50;;;4.53;;
57113;SDS011;42994;51.606;9.988;2022-12-18T05:01:47;9.05;;;4.10;;
57113;SDS011;42994;51.606;9.988;2022-12-18T05:04:14;7.28;;;3.83;;
57113;SDS011;42994;51.606;9.988;2022-12-18T05:06:42;7.13;;;3.80;;
57113;SDS011;42994;51.606;9.988;2022-12-18T05:09:08;6.43;;;3.53;;
57113;SDS011;42994;51.606;9.988;2022-12-18T05:11:35;6.63;;;3.60;;
57113;SDS011;42994;51.606;9.988;2022-12-18T05:14:02;10.48;;;4.50;;
57113;SDS011;42994;51.606;9.988;2022-12-18T05:16:28;11.50;;;4.45;;
57113;SDS011;42994;51.606;9.988;2022-12-18T05:18:55;16.02;;;4.47;;
57113;SDS011;42994;51.606;9.988;2022-12-18T05:21:21;9.45;;;4.50;;
57113;SDS011;42994;51.606;9.988;2022-12-18T05:23:49;10.35;;;4.18;;
57113;SDS011;42994;51.606;9.988;2022-12-18T05:26:16;8.75;;;4.70;;
57113;SDS011;42994;51.606;9.988;2022-12-18T05:28:44;8.10;;;4.60;;
57113;SDS011;42994;51.606;9.988;2022-12-18T05:31:11;9.82;;;4.63;;
57113;SDS011;42994;51.606;9.988;2022-12-18T05:33:37;13.77;;;5.15;;
57113;SDS011;42994;51.606;9.988;2022-12-18T05:36:05;9.63;;;4.68;;
57113;SDS011;42994;51.606;9.988;2022-12-18T05:38:33;12.10;;;5.15;;
57113;SDS011;42994;51.606;9.988;2022-12-18T05:41:03;10.02;;;4.72;;
57113;SDS011;42994;51.606;9.988;2022-12-18T05:43:30;9.45;;;4.85;;
57113;SDS011;42994;51.606;9.988;2022-12-18T05:46:02;7.45;;;4.75;;
57113;SDS011;42994;51.606;9.988;2022-12-18T05:48:30;8.13;;;4.47;;
57113;SDS011;42994;51.606;9.988;2022-12-18T05:51:02;8.73;;;4.22;;
57113;SDS011;42994;51.606;9.988;2022-12-18T05:53:30;9.38;;;4.13;;
57113;SDS011;42994;51.606;9.988;2022-12-18T05:55:59;6.55;;;3.90;;
57113;SDS011;42994;51.606;9.988;2022-12-18T05:58:28;10.93;;;4.45;;
57113;SDS011;42994;51.606;9.988;2022-12-18T06:00:55;8.93;;;4.97;;
57113;SDS011;42994;51.606;9.988;2022-12-18T06:03:21;11.55;;;5.43;;
57113;SDS011;42994;51.606;9.988;2022-12-18T06:05:48;10.75;;;4.93;;
57113;SDS011;42994;51.606;9.988;2022-12-18T06:08:14;11.85;;;5.70;;
57113;SDS011;42994;51.606;9.988;2022-12-18T06:10:41;11.50;;;5.25;;
57113;SDS011;42994;51.606;9.988;2022-12-18T06:13:08;14.18;;;5.25;;
57113;SDS011;42994;51.606;9.988;2022-12-18T06:15:37;10.73;;;5.30;;
57113;SDS011;42994;51.606;9.988;2022-12-18T06:18:04;11.27;;;6.00;;
57113;SDS011;42994;51.606;9.988;2022-12-18T06:20:30;16.90;;;7.35;;
57113;SDS011;42994;51.606;9.988;2022-12-18T06:22:57;16.10;;;7.70;;
57113;SDS011;42994;51.606;9.988;2022-12-18T06:25:23;11.80;;;7.85;;
57113;SDS011;42994;51.606;9.988;2022-12-18T06:27:50;16.02;;;6.35;;
57113;SDS011;42994;51.606;9.988;2022-12-18T06:30:16;17.23;;;5.97;;
57113;SDS011;42994;51.606;9.988;2022-12-18T06:32:45;18.83;;;7.85;;
57113;SDS011;42994;51.606;9.988;2022-12-18T06:35:11;20.38;;;7.10;;
57113;SDS011;42994;51.606;9.988;2022-12-18T06:37:38;18.48;;;6.93;;
57113;SDS011;42994;51.606;9.988;2022-12-18T06:40:05;17.42;;;8.23;;
57113;SDS011;42994;51.606;9.988;2022-12-18T06:42:32;19.55;;;8.40;;
57113;SDS011;42994;51.606;9.988;2022-12-18T06:44:59;18.63;;;8.68;;
57113;SDS011;42994;51.606;9.988;2022-12-18T06:47:26;16.48;;;8.20;;
57113;SDS011;42994;51.606;9.988;2022-12-18T06:49:53;21.05;;;9.40;;
57113;SDS011;42994;51.606;9.988;2022-12-18T06:52:20;15.80;;;7.22;;
57113;SDS011;42994;51.606;9.988;2022-12-18T06:54:47;18.45;;;8.63;;
57113;SDS011;42994;51.606;9.988;2022-12-18T06:57:13;19.90;;;8.95;;
57113;SDS011;42994;51.606;9.988;2022-12-18T06:59:40;20.63;;;9.05;;
57113;SDS011;42994;51.606;9.988;2022-12-18T07:02:09;14.93;;;7.72;;
57113;SDS011;42994;51.606;9.988;2022-12-18T07:04:37;19.15;;;8.10;;
57113;SDS011;42994;51.606;9.988;2022-12-18T07:07:05;19.67;;;9.23;;
57113;SDS011;42994;51.606;9.988;2022-12-18T07:09:31;14.40;;;7.55;;
57113;SDS011;42994;51.606;9.988;2022-12-18T07:11:58;16.02;;;7.88;;
57113;SDS011;42994;51.606;9.988;2022-12-18T07:14:25;17.80;;;9.10;;
57113;SDS011;42994;51.606;9.988;2022-12-18T07:16:51;15.18;;;8.27;;
57113;SDS011;42994;51.606;9.988;2022-12-18T07:19:18;17.30;;;7.88;;
57113;SDS011;42994;51.606;9.988;2022-12-18T07:21:44;23.58;;;8.88;;
57113;SDS011;42994;51.606;9.988;2022-12-18T07:24:12;15.70;;;8.18;;
57113;SDS011;42994;51.606;9.988;2022-12-18T07:26:39;19.70;;;8.85;;
57113;SDS011;42994;51.606;9.988;2022-12-18T07:29:06;18.92;;;9.18;;
57113;SDS011;42994;51.606;9.988;2022-12-18T07:31:32;18.38;;;9.32;;
57113;SDS011;42994;51.606;9.988;2022-12-18T07:33:59;14.60;;;8.07;;
57113;SDS011;42994;51.606;9.988;2022-12-18T07:36:26;22.08;;;8.45;;
57113;SDS011;42994;51.606;9.988;2022-12-18T07:38:52;18.55;;;9.05;;
57113;SDS011;42994;51.606;9.988;2022-12-18T07:41:20;21.58;;;8.15;;
57113;SDS011;42994;51.606;9.988;2022-12-18T07:43:47;23.48;;;9.77;;
57113;SDS011;42994;51.606;9.988;2022-12-18T07:46:14;45.53;;;11.00;;
57113;SDS011;42994;51.606;9.988;2022-12-18T07:48:41;19.85;;;10.60;;
57113;SDS011;42994;51.606;9.988;2022-12-18T07:51:11;22.85;;;11.02;;
57113;SDS011;42994;51.606;9.988;2022-12-18T07:53:38;24.13;;;11.27;;
57113;SDS011;42994;51.606;9.988;2022-12-18T07:56:06;36.08;;;13.27;;
57113;SDS011;42994;51.606;9.988;2022-12-18T07:58:36;33.97;;;14.10;;
57113;SDS011;42994;51.606;9.988;2022-12-18T08:01:04;27.60;;;13.55;;
57113;SDS011;42994;51.606;9.988;2022-12-18T08:03:31;31.45;;;12.95;;
57113;SDS011;42994;51.606;9.988;2022-12-18T08:05:58;28.17;;;13.85;;
57113;SDS011;42994;51.606;9.988;2022-12-18T08:08:26;28.13;;;13.00;;
57113;SDS011;42994;51.606;9.988;2022-12-18T08:10:52;24.70;;;11.63;;
57113;SDS011;42994;51.606;9.988;2022-12-18T08:13:19;24.60;;;11.77;;
57113;SDS011;42994;51.606;9.988;2022-12-18T08:15:48;23.73;;;11.35;;
57113;SDS011;42994;51.606;9.988;2022-12-18T08:18:22;23.52;;;10.93;;
57113;SDS011;42994;51.606;9.988;2022-12-18T08:20:48;21.75;;;10.15;;
57113;SDS011;42994;51.606;9.988;2022-12-18T08:23:15;22.08;;;10.70;;
57113;SDS011;42994;51.606;9.988;2022-12-18T08:25:42;22.90;;;11.90;;
57113;SDS011;42994;51.606;9.988;2022-12-18T08:28:09;26.63;;;10.65;;
57113;SDS011;42994;51.606;9.988;2022-12-18T08:30:35;20.35;;;11.48;;
57113;SDS011;42994;51.606;9.988;2022-12-18T08:33:03;24.05;;;11.45;;
57113;SDS011;42994;51.606;9.988;2022-12-18T08:35:30;22.95;;;11.02;;
57113;SDS011;42994;51.606;9.988;2022-12-18T08:38:01;26.85;;;11.82;;
57113;SDS011;42994;51.606;9.988;2022-12-18T08:40:27;30.98;;;11.18;;
57113;SDS011;42994;51.606;9.988;2022-12-18T08:42:54;28.52;;;11.10;;
57113;SDS011;42994;51.606;9.988;2022-12-18T08:45:38;22.13;;;10.80;;
57113;SDS011;42994;51.606;9.988;2022-12-18T08:48:06;25.50;;;11.75;;
57113;SDS011;42994;51.606;9.988;2022-12-18T08:50:32;23.05;;;10.35;;
57113;SDS011;42994;51.606;9.988;2022-12-18T08:52:59;18.33;;;9.45;;
57113;SDS011;42994;51.606;9.988;2022-12-18T08:55:26;16.45;;;8.77;;
57113;SDS011;42994;51.606;9.988;2022-12-18T08:57:53;15.00;;;7.95;;
57113;SDS011;42994;51.606;9.988;2022-12-18T09:00:19;16.42;;;8.73;;
57113;SDS011;42994;51.606;9.988;2022-12-18T09:02:46;17.30;;;7.88;;
57113;SDS011;42994;51.606;9.988;2022-12-18T09:05:14;16.80;;;7.95;;
57113;SDS011;42994;51.606;9.988;2022-12-18T09:07:41;21.63;;;7.18;;
57113;SDS011;42994;51.606;9.988;2022-12-18T09:10:08;17.08;;;6.93;;
57113;SDS011;42994;51.606;9.988;2022-12-18T09:12:34;19.13;;;8.70;;
57113;SDS011;42994;51.606;9.988;2022-12-18T09:15:01;14.32;;;7.82;;
57113;SDS011;42994;51.606;9.988;2022-12-18T09:17:28;19.88;;;8.07;;
57113;SDS011;42994;51.606;9.988;2022-12-18T09:19:54;24.90;;;8.45;;
57113;SDS011;42994;51.606;9.988;2022-12-18T09:22:22;17.73;;;8.15;;
57113;SDS011;42994;51.606;9.988;2022-12-18T09:24:49;21.00;;;9.52;;
57113;SDS011;42994;51.606;9.988;2022-12-18T09:27:15;19.45;;;10.05;;
57113;SDS011;42994;51.606;9.988;2022-12-18T09:29:42;22.27;;;10.93;;
57113;SDS011;42994;51.606;9.988;2022-12-18T09:32:09;18.63;;;10.48;;
57113;SDS011;42994;51.606;9.988;2022-12-18T09:34:35;22.85;;;10.98;;
57113;SDS011;42994;51.606;9.988;2022-12-18T09:37:02;24.00;;;11.05;;
57113;SDS011;42994;51.606;9.988;2022-12-18T09:39:30;19.88;;;10.00;;
57113;SDS011;42994;51.606;9.988;2022-12-18T09:41:57;34.17;;;16.13;;
57113;SDS011;42994;51.606;9.988;2022-12-18T09:44:25;32.40;;;16.10;;
57113;SDS011;42994;51.606;9.988;2022-12-18T09:46:57;23.42;;;12.52;;
57113;SDS011;42994;51.606;9.988;2022-12-18T09:49:34;26.70;;;15.10;;
57113;SDS011;42994;51.606;9.988;2022-12-18T09:52:05;28.77;;;15.45;;
57113;SDS011;42994;51.606;9.988;2022-12-18T09:54:39;29.17;;;14.70;;
57113;SDS011;42994;51.606;9.988;2022-12-18T09:57:09;34.80;;;14.48;;
57113;SDS011;42994;51.606;9.988;2022-12-18T09:59:39;28.13;;;13.93;;
57113;SDS011;42994;51.606;9.988;2022-12-18T10:02:18;30.67;;;13.38;;
57113;SDS011;42994;51.606;9.988;2022-12-18T10:04:48;29.67;;;12.90;;
57113;SDS011;42994;51.606;9.988;2022-12-18T10:07:54;20.10;;;10.13;;
57113;SDS011;42994;51.606;9.988;2022-12-18T10:10:29;31.30;;;12.35;;
57113;SDS011;42994;51.606;9.988;2022-12-18T10:13:05;23.23;;;12.88;;
57113;SDS011;42994;51.606;9.988;2022-12-18T10:15:40;31.20;;;13.75;;
57113;SDS011;42994;51.606;9.988;2022-12-18T10:18:20;33.92;;;16.98;;
57113;SDS011;42994;51.606;9.988;2022-12-18T10:21:00;34.22;;;15.05;;
57113;SDS011;42994;51.606;9.988;2022-12-18T10:23:33;26.45;;;15.07;;
57113;SDS011;42994;51.606;9.988;2022-12-18T10:26:11;28.58;;;13.80;;
57113;SDS011;42994;51.606;9.988;2022-12-18T10:28:39;26.58;;;13.00;;
57113;SDS011;42994;51.606;9.988;2022-12-18T10:31:07;31.73;;;14.32;;
57113;SDS011;42994;51.606;9.988;2022-12-18T10:33:38;25.63;;;13.40;;
57113;SDS011;42994;51.606;9.988;2022-12-18T10:36:06;31.45;;;15.77;;
57113;SDS011;42994;51.606;9.988;2022-12-18T10:38:33;29.40;;;13.38;;
57113;SDS011;42994;51.606;9.988;2022-12-18T10:41:00;25.92;;;13.88;;
57113;SDS011;42994;51.606;9.988;2022-12-18T10:43:31;29.25;;;14.45;;
57113;SDS011;42994;51.606;9.988;2022-12-18T10:46:01;28.65;;;13.68;;
57113;SDS011;42994;51.606;9.988;2022-12-18T10:50:59;24.45;;;12.63;;
57113;SDS011;42994;51.606;9.988;2022-12-18T10:53:27;28.45;;;13.82;;
57113;SDS011;42994;51.606;9.988;2022-12-18T10:55:57;30.65;;;14.55;;
57113;SDS011;42994;51.606;9.988;2022-12-18T10:58:27;31.65;;;13.63;;
57113;SDS011;42994;51.606;9.988;2022-12-18T11:01:03;35.63;;;14.82;;
57113;SDS011;42994;51.606;9.988;2022-12-18T11:03:33;27.88;;;13.93;;
57113;SDS011;42994;51.606;9.988;2022-12-18T11:06:02;23.10;;;12.73;;
57113;SDS011;42994;51.606;9.988;2022-12-18T11:08:31;33.58;;;15.35;;
57113;SDS011;42994;51.606;9.988;2022-12-18T11:10:58;23.63;;;12.55;;
57113;SDS011;42994;51.606;9.988;2022-12-18T11:13:25;23.65;;;11.63;;
57113;SDS011;42994;51.606;9.988;2022-12-18T11:15:54;26.60;;;12.93;;
57113;SDS011;42994;51.606;9.988;2022-12-18T11:18:25;29.50;;;14.27;;
57113;SDS011;42994;51.606;9.988;2022-12-18T11:20:54;19.92;;;12.05;;
57113;SDS011;42994;51.606;9.988;2022-12-18T11:23:23;19.73;;;10.85;;
57113;SDS011;42994;51.606;9.988;2022-12-18T11:25:51;27.35;;;11.38;;
57113;SDS011;42994;51.606;9.988;2022-12-18T11:28:34;23.63;;;11.63;;
57113;SDS011;42994;51.606;9.988;2022-12-18T11:31:09;23.08;;;11.10;;
57113;SDS011;42994;51.606;9.988;2022-12-18T11:33:45;27.08;;;13.38;;
57113;SDS011;42994;51.606;9.988;2022-12-18T11:36:17;23.38;;;11.00;;
57113;SDS011;42994;51.606;9.988;2022-12-18T11:38:46;21.02;;;11.48;;
57113;SDS011;42994;51.606;9.988;2022-12-18T11:41:16;26.35;;;11.15;;
57113;SDS011;42994;51.606;9.988;2022-12-18T11:44:09;22.50;;;11.05;;
57113;SDS011;42994;51.606;9.988;2022-12-18T11:46:41;27.30;;;13.75;;
57113;SDS011;42994;51.606;9.988;2022-12-18T11:49:15;23.00;;;12.68;;
57113;SDS011;42994;51.606;9.988;2022-12-18T11:51:48;19.63;;;11.07;;
57113;SDS011;42994;51.606;9.988;2022-12-18T11:54:20;15.10;;;8.38;;
57113;SDS011;42994;51.606;9.988;2022-12-18T11:56:48;15.57;;;8.65;;
57113;SDS011;42994;51.606;9.988;2022-12-18T11:59:21;18.75;;;7.38;;
57113;SDS011;42994;51.606;9.988;2022-12-18T12:01:56;16.38;;;7.60;;
57113;SDS011;42994;51.606;9.988;2022-12-18T12:04:43;14.68;;;7.63;;
57113;SDS011;42994;51.606;9.988;2022-12-18T12:07:35;14.48;;;7.35;;
57113;SDS011;42994;51.606;9.988;2022-12-18T12:10:12;14.43;;;6.85;;
57113;SDS011;42994;51.606;9.988;2022-12-18T12:12:55;12.93;;;7.22;;
57113;SDS011;42994;51.606;9.988;2022-12-18T12:15:38;16.38;;;7.82;;
57113;SDS011;42994;51.606;9.988;2022-12-18T12:18:16;12.30;;;7.28;;
57113;SDS011;42994;51.606;9.988;2022-12-18T12:20:56;18.08;;;8.70;;
57113;SDS011;42994;51.606;9.988;2022-12-18T12:23:33;15.52;;;8.32;;
57113;SDS011;42994;51.606;9.988;2022-12-18T12:26:06;17.88;;;9.27;;
57113;SDS011;42994;51.606;9.988;2022-12-18T12:28:50;16.58;;;8.02;;
57113;SDS011;42994;51.606;9.988;2022-12-18T12:31:29;18.63;;;7.90;;
57113;SDS011;42994;51.606;9.988;2022-12-18T12:34:09;19.50;;;10.20;;
57113;SDS011;42994;51.606;9.988;2022-12-18T12:36:46;20.17;;;10.25;;
57113;SDS011;42994;51.606;9.988;2022-12-18T12:39:22;18.50;;;10.00;;
57113;SDS011;42994;51.606;9.988;2022-12-18T12:41:53;27.30;;;12.02;;
57113;SDS011;42994;51.606;9.988;2022-12-18T12:44:39;22.30;;;11.48;;
57113;SDS011;42994;51.606;9.988;2022-12-18T12:47:12;26.95;;;12.77;;
57113;SDS011;42994;51.606;9.988;2022-12-18T12:49:41;25.65;;;13.23;;
57113;SDS011;42994;51.606;9.988;2022-12-18T12:52:16;23.30;;;13.10;;
57113;SDS011;42994;51.606;9.988;2022-12-18T12:54:48;28.60;;;14.65;;
57113;SDS011;42994;51.606;9.988;2022-12-18T12:57:17;23.48;;;12.48;;
57113;SDS011;42994;51.606;9.988;2022-12-18T12:59:50;27.83;;;14.20;;
57113;SDS011;42994;51.606;9.988;2022-12-18T13:02:26;25.65;;;13.32;;
57113;SDS011;42994;51.606;9.988;2022-12-18T13:04:58;25.77;;;13.07;;
57113;SDS011;42994;51.606;9.988;2022-12-18T13:07:32;25.42;;;14.65;;
57113;SDS011;42994;51.606;9.988;2022-12-18T13:10:14;29.20;;;15.13;;
57113;SDS011;42994;51.606;9.988;2022-12-18T13:12:51;25.70;;;13.98;;
57113;SDS011;42994;51.606;9.988;2022-12-18T13:15:21;24.05;;;14.15;;
57113;SDS011;42994;51.606;9.988;2022-12-18T13:18:02;29.98;;;13.32;;
57113;SDS011;42994;51.606;9.988;2022-12-18T13:20:32;30.65;;;14.93;;
57113;SDS011;42994;51.606;9.988;2022-12-18T13:23:02;29.38;;;14.27;;
57113;SDS011;42994;51.606;9.988;2022-12-18T13:25:46;28.08;;;14.07;;
57113;SDS011;42994;51.606;9.988;2022-12-18T13:28:12;26.50;;;14.38;;
57113;SDS011;42994;51.606;9.988;2022-12-18T13:30:53;32.47;;;14.85;;
57113;SDS011;42994;51.606;9.988;2022-12-18T13:36:23;29.67;;;15.07;;
57113;SDS011;42994;51.606;9.988;2022-12-18T13:39:11;25.15;;;13.98;;
57113;SDS011;42994;51.606;9.988;2022-12-18T13:41:48;23.45;;;12.68;;
57113;SDS011;42994;51.606;9.988;2022-12-18T13:44:22;29.65;;;13.38;;
57113;SDS011;42994;51.606;9.988;2022-12-18T13:46:54;27.48;;;14.95;;
57113;SDS011;42994;51.606;9.988;2022-12-18T13:49:22;25.95;;;12.38;;
57113;SDS011;42994;51.606;9.988;2022-12-18T13:51:50;27.52;;;13.50;;
57113;SDS011;42994;51.606;9.988;2022-12-18T13:54:20;30.05;;;13.85;;
57113;SDS011;42994;51.606;9.988;2022-12-18T13:56:59;28.27;;;13.63;;
57113;SDS011;42994;51.606;9.988;2022-12-18T13:59:26;33.60;;;13.80;;
57113;SDS011;42994;51.606;9.988;2022-12-18T14:02:00;27.73;;;13.75;;
57113;SDS011;42994;51.606;9.988;2022-12-18T14:04:32;24.20;;;13.77;;
57113;SDS011;42994;51.606;9.988;2022-12-18T14:07:01;26.67;;;13.73;;
57113;SDS011;42994;51.606;9.988;2022-12-18T14:09:35;23.88;;;12.73;;
57113;SDS011;42994;51.606;9.988;2022-12-18T14:12:03;29.88;;;13.95;;
57113;SDS011;42994;51.606;9.988;2022-12-18T14:14:50;23.30;;;13.48;;
57113;SDS011;42994;51.606;9.988;2022-12-18T14:17:18;29.25;;;14.35;;
57113;SDS011;42994;51.606;9.988;2022-12-18T14:19:46;24.20;;;13.20;;
57113;SDS011;42994;51.606;9.988;2022-12-18T14:22:16;25.45;;;12.82;;
57113;SDS011;42994;51.606;9.988;2022-12-18T14:24:46;23.60;;;13.80;;
57113;SDS011;42994;51.606;9.988;2022-12-18T14:27:21;22.33;;;13.23;;
57113;SDS011;42994;51.606;9.988;2022-12-18T14:29:49;23.63;;;12.35;;
57113;SDS011;42994;51.606;9.988;2022-12-18T14:32:16;25.55;;;12.82;;
57113;SDS011;42994;51.606;9.988;2022-12-18T14:34:45;24.00;;;13.73;;
57113;SDS011;42994;51.606;9.988;2022-12-18T14:37:13;28.88;;;14.18;;
57113;SDS011;42994;51.606;9.988;2022-12-18T14:39:52;26.45;;;14.15;;
57113;SDS011;42994;51.606;9.988;2022-12-18T14:42:21;21.52;;;12.90;;
57113;SDS011;42994;51.606;9.988;2022-12-18T14:44:48;26.63;;;13.25;;
57113;SDS011;42994;51.606;9.988;2022-12-18T14:47:15;26.30;;;13.40;;
57113;SDS011;42994;51.606;9.988;2022-12-18T14:49:42;25.17;;;14.60;;
57113;SDS011;42994;51.606;9.988;2022-12-18T14:52:26;32.42;;;14.88;;
57113;SDS011;42994;51.606;9.988;2022-12-18T14:54:58;31.65;;;15.75;;
57113;SDS011;42994;51.606;9.988;2022-12-18T14:57:25;30.48;;;14.65;;
57113;SDS011;42994;51.606;9.988;2022-12-18T15:00:03;29.10;;;14.38;;